createdAt,value
2023-04-05T00:01:12.578Z,0.90
2023-04-05T00:03:41.201Z,0.93
2023-04-05T00:06:08.959Z,1.00
2023-04-05T00:08:37.366Z,1.10
2023-04-05T00:11:04.894Z,1.00
2023-04-05T00:13:32.341Z,0.90
2023-04-05T00:16:01.487Z,1.00
2023-04-05T00:18:34.457Z,1.00
2023-04-05T00:21:01.993Z,0.90
2023-04-05T00:23:29.523Z,1.00
2023-04-05T00:25:56.917Z,1.00
2023-04-05T00:28:24.612Z,0.70
2023-04-05T00:30:53.024Z,1.30
2023-04-05T00:33:20.421Z,1.00
2023-04-05T00:35:47.954Z,1.00
2023-04-05T00:38:15.361Z,1.10
2023-04-05T00:40:43.247Z,0.97
2023-04-05T00:43:10.987Z,1.10
2023-04-05T00:45:38.469Z,1.00
2023-04-05T00:48:06.603Z,0.87
2023-04-05T00:50:34.490Z,1.00
2023-04-05T00:53:02.551Z,0.90
2023-04-05T00:55:29.982Z,1.00
2023-04-05T00:57:57.594Z,1.10
2023-04-05T01:00:26.504Z,1.33
2023-04-05T01:03:01.977Z,1.07
2023-04-05T01:06:01.676Z,1.13
2023-04-05T01:08:52.342Z,0.97
2023-04-05T01:11:20.001Z,0.90
2023-04-05T01:13:47.494Z,1.17
2023-04-05T01:16:15.864Z,1.10
2023-04-05T01:18:46.849Z,1.10
2023-04-05T01:21:39.297Z,1.27
2023-04-05T01:24:47.140Z,1.00
2023-04-05T01:27:18.272Z,0.83
2023-04-05T01:30:17.748Z,1.07
2023-04-05T01:32:56.491Z,1.10
2023-04-05T01:35:45.357Z,1.07
2023-04-05T01:38:18.116Z,1.00
2023-04-05T01:40:45.552Z,0.80
2023-04-05T01:43:17.091Z,1.00
2023-04-05T01:45:45.654Z,0.70
2023-04-05T01:48:14.049Z,1.00
2023-04-05T01:50:41.911Z,1.30
2023-04-05T01:53:09.839Z,1.00
2023-04-05T01:55:37.344Z,1.20
2023-04-05T01:58:04.886Z,0.93
2023-04-05T02:00:32.774Z,1.17
2023-04-05T02:03:00.738Z,1.00
2023-04-05T02:05:28.274Z,1.00
2023-04-05T02:07:55.816Z,1.10
2023-04-05T02:10:23.620Z,1.10
2023-04-05T02:12:51.462Z,0.97
2023-04-05T02:15:18.931Z,1.00
2023-04-05T02:17:46.336Z,1.10
2023-04-05T02:20:14.882Z,1.00
2023-04-05T02:22:45.620Z,0.90
2023-04-05T02:25:13.504Z,1.10
2023-04-05T02:27:41.313Z,0.77
2023-04-05T02:30:09.548Z,0.90
2023-04-05T02:32:36.980Z,1.00
2023-04-05T02:35:05.226Z,1.00
2023-04-05T02:37:32.589Z,1.00
2023-04-05T02:39:59.944Z,0.90
2023-04-05T02:42:27.426Z,0.90
2023-04-05T02:44:54.869Z,1.20
2023-04-05T02:47:22.385Z,1.00
2023-04-05T02:49:49.930Z,1.07
2023-04-05T02:52:17.502Z,1.10
2023-04-05T02:54:46.484Z,1.07
2023-04-05T02:57:14.237Z,0.93
2023-04-05T02:59:42.752Z,1.10
2023-04-05T03:02:11.179Z,1.10
2023-04-05T03:04:38.872Z,1.20
2023-04-05T03:07:06.290Z,0.83
2023-04-05T03:09:33.871Z,1.00
2023-04-05T03:12:03.644Z,1.03
2023-04-05T03:14:31.757Z,0.80
2023-04-05T03:16:59.276Z,0.93
2023-04-05T03:19:27.223Z,0.90
2023-04-05T03:21:54.612Z,0.90
2023-04-05T03:24:22.362Z,0.80
2023-04-05T03:26:50.248Z,1.00
2023-04-05T03:29:17.824Z,1.00
2023-04-05T03:31:46.006Z,1.10
2023-04-05T03:34:13.497Z,0.80
2023-04-05T03:36:43.520Z,0.97
2023-04-05T03:39:13.031Z,1.17
2023-04-05T03:41:41.055Z,1.30
2023-04-05T03:44:09.210Z,1.40
2023-04-05T03:46:38.309Z,0.97
2023-04-05T03:49:07.382Z,1.27
2023-04-05T03:51:34.779Z,0.80
2023-04-05T03:54:02.260Z,1.20
2023-04-05T03:56:34.787Z,1.40
2023-04-05T03:59:03.739Z,1.10
2023-04-05T04:01:31.633Z,1.20
2023-04-05T04:04:00.520Z,0.90
2023-04-05T04:06:27.875Z,1.30
2023-04-05T04:08:55.187Z,1.27
2023-04-05T04:11:22.727Z,1.10
2023-04-05T04:13:50.332Z,1.30
2023-04-05T04:16:18.296Z,0.97
2023-04-05T04:18:45.921Z,1.10
2023-04-05T04:21:15.263Z,1.10
2023-04-05T04:23:46.254Z,1.10
2023-04-05T04:26:14.556Z,0.97
2023-04-05T04:28:43.912Z,1.23
2023-04-05T04:31:14.639Z,1.17
2023-04-05T04:33:43.716Z,0.93
2023-04-05T04:36:14.008Z,1.00
2023-04-05T04:38:43.190Z,1.10
2023-04-05T04:41:11.801Z,1.30
2023-04-05T04:43:45.207Z,1.30
2023-04-05T04:46:15.453Z,1.20
2023-04-05T04:48:43.298Z,1.10
2023-04-05T04:51:10.834Z,1.20
2023-04-05T04:53:38.305Z,1.27
2023-04-05T04:56:09.436Z,1.07
2023-04-05T04:58:46.920Z,1.10
2023-04-05T05:01:14.336Z,0.90
2023-04-05T05:03:43.035Z,1.10
2023-04-05T05:06:10.837Z,0.90
2023-04-05T05:08:38.202Z,1.03
2023-04-05T05:11:07.822Z,1.13
2023-04-05T05:13:35.330Z,1.40
2023-04-05T05:16:05.223Z,1.30
2023-04-05T05:18:34.160Z,1.50
2023-04-05T05:21:01.998Z,1.30
2023-04-05T05:23:29.495Z,1.30
2023-04-05T05:26:00.466Z,1.37
2023-04-05T05:28:28.267Z,1.70
2023-04-05T05:30:55.909Z,1.47
2023-04-05T05:33:26.126Z,1.30
2023-04-05T05:35:53.901Z,1.37
2023-04-05T05:38:22.302Z,1.20
2023-04-05T05:40:55.834Z,1.57
2023-04-05T05:43:23.848Z,1.30
2023-04-05T05:45:55.180Z,1.00
2023-04-05T05:48:22.759Z,1.20
2023-04-05T05:50:50.719Z,1.10
2023-04-05T05:53:21.000Z,1.20
2023-04-05T05:55:50.293Z,1.40
2023-04-05T05:58:18.969Z,1.50
2023-04-05T06:00:49.902Z,1.50
2023-04-05T06:03:32.097Z,1.60
2023-04-05T06:06:05.540Z,1.40
2023-04-05T06:08:34.984Z,1.60
2023-04-05T06:13:59.635Z,1.10
2023-04-05T06:16:38.589Z,1.40
2023-04-05T06:19:15.446Z,1.20
2023-04-05T06:21:47.147Z,1.40
2023-04-05T06:24:17.326Z,1.40
2023-04-05T06:27:11.758Z,1.47
2023-04-05T06:29:44.083Z,1.50
2023-04-05T06:32:14.928Z,0.93
2023-04-05T06:34:54.144Z,1.30
2023-04-05T06:40:21.123Z,1.07
2023-04-05T06:42:53.790Z,1.30
2023-04-05T06:45:26.268Z,1.60
2023-04-05T06:47:54.897Z,1.10
2023-04-05T06:50:31.829Z,1.40
2023-04-05T06:53:03.328Z,1.40
2023-04-05T06:55:34.011Z,1.00
2023-04-05T06:58:10.899Z,1.00
2023-04-05T07:00:45.223Z,1.07
2023-04-05T07:03:15.276Z,1.30
2023-04-05T07:05:54.810Z,1.40
2023-04-05T07:08:25.649Z,1.40
2023-04-05T07:11:03.876Z,1.10
2023-04-05T07:13:35.033Z,1.50
2023-04-05T07:16:09.686Z,1.50
2023-04-05T07:18:43.459Z,1.43
2023-04-05T07:21:14.816Z,1.70
2023-04-05T07:23:54.480Z,1.63
2023-04-05T07:26:23.779Z,1.43
2023-04-05T07:28:57.191Z,1.50
2023-04-05T07:31:27.271Z,1.60
2023-04-05T07:34:02.143Z,1.60
2023-04-05T07:36:31.982Z,1.70
2023-04-05T07:39:01.449Z,1.80
2023-04-05T07:41:32.688Z,1.73
2023-04-05T07:44:00.177Z,1.80
2023-04-05T07:46:28.533Z,1.80
2023-04-05T07:48:56.558Z,1.53
2023-04-05T07:51:24.480Z,1.80
2023-04-05T07:53:55.045Z,1.80
2023-04-05T07:56:23.419Z,1.93
2023-04-05T07:58:55.033Z,1.90
2023-04-05T08:01:27.787Z,1.67
2023-04-05T08:03:58.729Z,1.73
2023-04-05T08:06:27.589Z,1.93
2023-04-05T08:08:55.039Z,1.50
2023-04-05T08:11:22.396Z,1.93
2023-04-05T08:13:50.288Z,1.80
2023-04-05T08:16:18.096Z,1.45
2023-04-05T08:18:48.942Z,2.15
2023-04-05T08:21:16.426Z,1.90
2023-04-05T08:23:44.082Z,1.47
2023-04-05T08:26:11.581Z,1.80
2023-04-05T08:28:39.427Z,1.60
2023-04-05T08:31:07.191Z,1.77
2023-04-05T08:33:34.744Z,2.17
2023-04-05T08:36:07.138Z,2.00
2023-04-05T08:38:35.002Z,1.70
2023-04-05T08:41:14.497Z,1.85
2023-04-05T08:44:03.204Z,1.90
2023-04-05T08:46:35.180Z,2.20
2023-04-05T08:49:08.381Z,2.95
2023-04-05T08:51:39.374Z,1.90
2023-04-05T08:54:07.399Z,1.60
2023-04-05T08:56:36.412Z,1.98
2023-04-05T08:59:10.463Z,2.28
2023-04-05T09:01:44.774Z,2.10
2023-04-05T09:04:24.952Z,2.00
2023-04-05T09:06:54.362Z,2.03
2023-04-05T09:09:23.153Z,2.10
2023-04-05T09:11:51.165Z,1.92
2023-04-05T09:14:21.050Z,2.07
2023-04-05T09:16:49.214Z,2.00
2023-04-05T09:19:17.177Z,2.35
2023-04-05T09:22:01.223Z,2.47
2023-04-05T09:24:42.368Z,2.20
2023-04-05T09:27:14.158Z,2.30
2023-04-05T09:29:48.206Z,2.03
2023-04-05T09:32:18.364Z,2.17
2023-04-05T09:34:48.643Z,2.17
2023-04-05T09:37:19.538Z,2.20
2023-04-05T09:39:49.889Z,2.53
2023-04-05T09:42:19.404Z,1.80
2023-04-05T09:45:05.283Z,2.10
2023-04-05T09:47:36.884Z,2.47
2023-04-05T09:50:15.132Z,2.65
2023-04-05T09:52:43.741Z,2.60
2023-04-05T09:55:12.884Z,2.70
2023-04-05T09:57:43.213Z,2.33
2023-04-05T10:00:22.548Z,2.22
2023-04-05T10:02:56.018Z,2.30
2023-04-05T10:05:30.513Z,2.25
2023-04-05T10:07:59.253Z,2.43
2023-04-05T10:10:27.064Z,2.47
2023-04-05T10:12:54.923Z,2.37
2023-04-05T10:15:25.941Z,2.42
2023-04-05T10:18:03.861Z,2.22
2023-04-05T10:20:33.682Z,2.10
2023-04-05T10:23:16.382Z,2.40
2023-04-05T10:25:53.865Z,2.60
2023-04-05T10:28:35.709Z,2.30
2023-04-05T10:31:03.582Z,2.85
2023-04-05T10:33:42.279Z,2.10
2023-04-05T10:36:39.384Z,2.55
2023-04-05T10:39:27.125Z,2.70
2023-04-05T10:42:08.061Z,2.90
2023-04-05T10:44:37.775Z,2.80
2023-04-05T10:47:07.655Z,2.40
2023-04-05T10:49:57.844Z,3.07
2023-04-05T10:52:25.709Z,2.67
2023-04-05T10:54:53.791Z,2.60
2023-04-05T10:57:23.273Z,2.65
2023-04-05T10:59:52.469Z,2.70
2023-04-05T11:02:20.905Z,2.35
2023-04-05T11:04:57.366Z,2.70
2023-04-05T11:07:25.091Z,2.60
2023-04-05T11:10:04.054Z,2.70
2023-04-05T11:12:57.352Z,2.67
2023-04-05T11:15:30.507Z,2.40
2023-04-05T11:18:08.191Z,2.65
2023-04-05T11:20:45.825Z,2.58
2023-04-05T11:23:18.986Z,2.53
2023-04-05T11:25:54.469Z,2.42
2023-04-05T11:28:44.167Z,2.63
2023-04-05T11:31:18.660Z,2.65
2023-04-05T11:33:55.022Z,2.65
2023-04-05T11:36:46.229Z,2.42
2023-04-05T11:39:23.618Z,2.60
2023-04-05T11:42:03.951Z,2.42
2023-04-05T11:44:48.797Z,2.80
2023-04-05T11:47:23.473Z,2.63
2023-04-05T11:49:57.412Z,2.05
2023-04-05T11:52:25.086Z,2.55
2023-04-05T11:54:53.217Z,2.38
2023-04-05T11:57:22.932Z,2.95
2023-04-05T11:59:52.269Z,2.63
2023-04-05T12:02:20.819Z,3.00
2023-04-05T12:04:57.078Z,3.15
2023-04-05T12:07:29.205Z,3.00
2023-04-05T12:10:05.419Z,2.90
2023-04-05T12:12:41.126Z,3.08
2023-04-05T12:15:11.990Z,3.22
2023-04-05T12:17:42.860Z,3.10
2023-04-05T12:20:31.148Z,3.47
2023-04-05T12:22:58.692Z,3.13
2023-04-05T12:25:42.395Z,3.38
2023-04-05T12:28:10.066Z,2.45
2023-04-05T12:30:57.623Z,3.53
2023-04-05T12:33:33.984Z,3.10
2023-04-05T12:36:05.789Z,2.88
2023-04-05T12:38:33.264Z,3.33
2023-04-05T12:41:02.599Z,3.00
2023-04-05T12:43:41.061Z,3.05
2023-04-05T12:46:16.597Z,2.97
2023-04-05T12:48:44.022Z,3.22
2023-04-05T12:51:17.060Z,3.08
2023-04-05T12:53:51.046Z,3.20
2023-04-05T12:56:18.752Z,2.90
2023-04-05T12:58:52.619Z,3.30
2023-04-05T13:01:20.048Z,2.92
2023-04-05T13:03:49.680Z,2.78
2023-04-05T13:06:17.602Z,2.85
2023-04-05T13:08:44.947Z,2.75
2023-04-05T13:11:12.289Z,3.00
2023-04-05T13:13:39.786Z,2.90
2023-04-05T13:16:07.353Z,3.25
2023-04-05T13:18:34.813Z,3.33
2023-04-05T13:21:07.816Z,2.58
2023-04-05T13:23:40.111Z,3.10
2023-04-05T13:26:08.567Z,3.10
2023-04-05T13:28:35.928Z,2.72
2023-04-05T13:31:06.739Z,3.17
2023-04-05T13:33:34.132Z,3.20
2023-04-05T13:36:01.710Z,2.80
2023-04-05T13:38:29.492Z,3.13
2023-04-05T13:40:56.920Z,2.60
2023-04-05T13:43:24.345Z,3.25
2023-04-05T13:45:51.653Z,3.30
2023-04-05T13:48:19.282Z,2.72
2023-04-05T13:50:46.735Z,2.47
2023-04-05T13:53:14.164Z,2.95
2023-04-05T13:55:41.856Z,3.30
2023-04-05T13:58:09.328Z,3.40
2023-04-05T14:00:38.292Z,3.47
2023-04-05T14:03:05.745Z,2.70
2023-04-05T14:05:33.133Z,2.90
2023-04-05T14:08:00.973Z,2.65
2023-04-05T14:10:28.355Z,2.50
2023-04-05T14:12:55.941Z,3.00
2023-04-05T14:15:23.384Z,2.55
2023-04-05T14:17:50.781Z,2.13
2023-04-05T14:20:18.328Z,2.50
2023-04-05T14:22:45.832Z,2.60
2023-04-05T14:25:13.302Z,2.75
2023-04-05T14:27:44.809Z,2.80
2023-04-05T14:30:12.854Z,2.47
2023-04-05T14:32:40.581Z,2.80
2023-04-05T14:35:08.753Z,2.92
2023-04-05T14:37:36.175Z,2.90
2023-04-05T14:40:03.986Z,3.17
2023-04-05T14:42:45.057Z,3.10
2023-04-05T14:45:17.002Z,2.58
2023-04-05T14:47:44.538Z,3.13
2023-04-05T14:50:11.962Z,2.78
2023-04-05T14:52:40.178Z,3.13
2023-04-05T14:55:08.118Z,3.30
2023-04-05T14:57:35.771Z,3.25
2023-04-05T15:00:03.539Z,3.08
2023-04-05T15:02:31.535Z,3.10
2023-04-05T15:05:01.338Z,3.05
2023-04-05T15:07:29.345Z,2.88
2023-04-05T15:09:56.743Z,3.50
2023-04-05T15:12:24.718Z,3.20
2023-04-05T15:14:54.439Z,3.42
2023-04-05T15:17:22.466Z,3.20
2023-04-05T15:19:49.867Z,3.47
2023-04-05T15:22:17.811Z,3.50
2023-04-05T15:24:45.443Z,3.70
2023-04-05T15:27:12.996Z,3.83
2023-04-05T15:29:40.427Z,3.38
2023-04-05T15:32:07.965Z,3.47
2023-04-05T15:34:35.497Z,2.97
2023-04-05T15:37:03.018Z,3.58
2023-04-05T15:39:30.413Z,3.53
2023-04-05T15:41:57.984Z,3.55
2023-04-05T15:44:26.844Z,3.95
2023-04-05T15:46:54.400Z,3.55
2023-04-05T15:49:21.819Z,3.47
2023-04-05T15:51:49.597Z,3.50
2023-04-05T15:54:19.078Z,3.72
2023-04-05T15:56:47.055Z,3.80
2023-04-05T15:59:14.714Z,4.20
2023-04-05T16:01:42.520Z,4.30
2023-04-05T16:04:10.164Z,3.60
2023-04-05T16:06:37.741Z,3.70
2023-04-05T16:09:05.682Z,4.13
2023-04-05T16:11:33.305Z,4.35
2023-04-05T16:14:01.090Z,3.97
2023-04-05T16:16:41.655Z,3.83
2023-04-05T16:19:17.317Z,3.88
2023-04-05T16:21:44.982Z,3.97
2023-04-05T16:24:12.419Z,3.60
2023-04-05T16:26:39.835Z,3.85
2023-04-05T16:29:07.300Z,4.28
2023-04-05T16:31:36.335Z,4.00
2023-04-05T16:34:04.026Z,4.25
2023-04-05T16:36:31.778Z,4.60
2023-04-05T16:38:59.118Z,4.20
2023-04-05T16:41:26.557Z,3.58
2023-04-05T16:43:53.950Z,3.88
2023-04-05T16:46:21.641Z,4.13
2023-04-05T16:48:49.150Z,3.95
2023-04-05T16:51:17.071Z,3.95
2023-04-05T16:53:44.467Z,4.28
2023-04-05T16:56:11.975Z,3.58
2023-04-05T16:58:39.430Z,4.03
2023-04-05T17:01:07.398Z,4.05
2023-04-05T17:03:34.847Z,3.50
2023-04-05T17:06:02.997Z,4.07
2023-04-05T17:08:30.567Z,3.92
2023-04-05T17:10:57.995Z,4.25
2023-04-05T17:13:25.620Z,4.18
2023-04-05T17:15:53.208Z,4.03
2023-04-05T17:18:20.740Z,3.92
2023-04-05T17:20:48.264Z,4.30
2023-04-05T17:23:15.948Z,3.83
2023-04-05T17:25:43.721Z,3.60
2023-04-05T17:28:13.000Z,3.38
2023-04-05T17:30:40.704Z,3.67
2023-04-05T17:33:08.209Z,3.80
2023-04-05T17:35:35.674Z,3.67
2023-04-05T17:38:03.678Z,3.58
2023-04-05T17:40:31.413Z,3.03
2023-04-05T17:42:58.926Z,3.45
2023-04-05T17:45:27.611Z,3.35
2023-04-05T17:47:55.004Z,3.10
2023-04-05T17:50:24.745Z,3.13
2023-04-05T17:52:52.430Z,3.20
2023-04-05T17:55:19.835Z,3.40
2023-04-05T17:57:47.277Z,3.40
2023-04-05T18:00:15.840Z,3.38
2023-04-05T18:02:43.300Z,3.17
2023-04-05T18:05:10.829Z,3.30
2023-04-05T18:07:38.762Z,3.00
2023-04-05T18:10:07.545Z,3.15
2023-04-05T18:12:35.104Z,3.20
2023-04-05T18:15:02.598Z,3.35
2023-04-05T18:17:30.237Z,3.15
2023-04-05T18:19:57.812Z,3.47
2023-04-05T18:22:25.295Z,3.00
2023-04-05T18:24:52.802Z,3.33
2023-04-05T18:27:20.176Z,2.90
2023-04-05T18:29:48.701Z,3.42
2023-04-05T18:32:16.469Z,3.20
2023-04-05T18:34:43.946Z,3.60
2023-04-05T18:37:11.740Z,3.97
2023-04-05T18:39:39.268Z,3.80
2023-04-05T18:42:07.021Z,3.58
2023-04-05T18:44:34.419Z,3.60
2023-04-05T18:47:01.810Z,3.70
2023-04-05T18:49:29.299Z,3.65
2023-04-05T18:51:56.739Z,3.60
2023-04-05T18:54:24.195Z,3.33
2023-04-05T18:56:51.716Z,3.00
2023-04-05T18:59:19.959Z,2.95
2023-04-05T19:01:47.494Z,2.78
2023-04-05T19:04:16.348Z,3.00
2023-04-05T19:06:43.741Z,3.28
2023-04-05T19:09:12.415Z,3.15
2023-04-05T19:11:39.940Z,3.47
2023-04-05T19:14:07.307Z,2.97
2023-04-05T19:16:34.738Z,2.80
2023-04-05T19:19:03.744Z,2.67
2023-04-05T19:21:31.410Z,2.85
2023-04-05T19:23:58.797Z,2.47
2023-04-05T19:26:26.329Z,2.45
2023-04-05T19:28:53.852Z,2.50
2023-04-05T19:31:21.408Z,2.50
2023-04-05T19:33:50.289Z,2.83
2023-04-05T19:36:18.030Z,2.75
2023-04-05T19:38:45.508Z,2.60
2023-04-05T19:41:13.079Z,2.55
2023-04-05T19:43:41.436Z,2.17
2023-04-05T19:46:12.431Z,2.70
2023-04-05T19:48:41.757Z,2.40
2023-04-05T19:51:10.492Z,2.23
2023-04-05T19:53:50.400Z,2.70
2023-04-05T19:56:32.491Z,2.38
2023-04-05T19:59:09.268Z,2.38
2023-04-05T20:01:38.861Z,2.30
2023-04-05T20:04:19.001Z,2.40
2023-04-05T20:06:55.418Z,2.15
2023-04-05T20:09:28.944Z,2.03
2023-04-05T20:12:02.059Z,2.05
2023-04-05T20:14:36.077Z,2.63
2023-04-05T20:17:04.939Z,2.10
2023-04-05T20:19:32.560Z,2.15
2023-04-05T20:22:07.834Z,1.95
2023-04-05T20:24:38.339Z,1.88
2023-04-05T20:27:05.927Z,2.10
2023-04-05T20:29:33.793Z,2.03
2023-04-05T20:32:02.156Z,1.90
2023-04-05T20:34:32.125Z,1.80
2023-04-05T20:37:01.993Z,1.95
2023-04-05T20:39:30.607Z,2.50
2023-04-05T20:41:58.066Z,2.20
2023-04-05T20:44:26.394Z,2.08
2023-04-05T20:46:56.577Z,1.88
2023-04-05T20:49:24.756Z,1.70
2023-04-05T20:51:52.206Z,2.05
2023-04-05T20:54:21.166Z,2.30
2023-04-05T20:56:48.543Z,1.80
2023-04-05T20:59:16.060Z,1.40
2023-04-05T21:01:43.686Z,1.85
2023-04-05T21:04:11.271Z,2.10
2023-04-05T21:06:39.854Z,2.20
2023-04-05T21:09:07.521Z,1.70
2023-04-05T21:11:35.055Z,2.20
2023-04-05T21:14:02.670Z,1.40
2023-04-05T21:16:30.594Z,1.38
2023-04-05T21:18:58.100Z,1.90
2023-04-05T21:21:26.154Z,1.73
2023-04-05T21:23:53.744Z,2.00
2023-04-05T21:26:21.560Z,1.90
2023-04-05T21:28:49.267Z,2.10
2023-04-05T21:31:16.909Z,2.00
2023-04-05T21:33:44.475Z,1.80
2023-04-05T21:36:11.950Z,1.98
2023-04-05T21:38:39.371Z,1.98
2023-04-05T21:41:07.132Z,1.90
2023-04-05T21:43:34.588Z,2.28
2023-04-05T21:46:02.143Z,1.90
2023-04-05T21:48:29.695Z,1.90
2023-04-05T21:50:57.167Z,2.53
2023-04-05T21:53:25.553Z,2.00
2023-04-05T21:55:53.236Z,1.65
2023-04-05T21:58:20.744Z,2.15
2023-04-05T22:00:48.217Z,1.90
2023-04-05T22:03:15.846Z,2.03
2023-04-05T22:05:43.373Z,2.03
2023-04-05T22:08:11.462Z,1.95
2023-04-05T22:10:39.446Z,2.17
2023-04-05T22:13:07.065Z,2.30
2023-04-05T22:15:34.890Z,2.00
2023-04-05T22:18:03.245Z,2.35
2023-04-05T22:20:31.342Z,2.40
2023-04-05T22:22:58.896Z,2.03
2023-04-05T22:25:26.785Z,2.33
2023-04-05T22:30:44.872Z,2.05
2023-04-05T22:33:15.555Z,2.13
2023-04-05T22:35:43.189Z,2.40
2023-04-05T22:38:10.968Z,2.30
2023-04-05T22:40:38.560Z,2.10
2023-04-05T22:43:05.957Z,2.15
2023-04-05T22:45:33.394Z,2.50
2023-04-05T22:48:00.894Z,1.88
2023-04-05T22:50:28.335Z,2.20
2023-04-05T22:52:55.728Z,2.40
2023-04-05T22:55:23.392Z,2.40
2023-04-05T22:57:51.029Z,2.20
2023-04-05T23:00:18.595Z,2.33
2023-04-05T23:02:46.332Z,2.30
2023-04-05T23:05:13.907Z,2.80
2023-04-05T23:07:41.413Z,2.40
2023-04-05T23:10:09.389Z,2.20
2023-04-05T23:12:36.839Z,2.30
2023-04-05T23:15:04.778Z,2.70
2023-04-05T23:17:32.339Z,2.53
2023-04-05T23:19:59.791Z,2.55
2023-04-05T23:22:27.226Z,2.28
2023-04-05T23:24:54.672Z,2.70
2023-04-05T23:27:22.952Z,2.60
2023-04-05T23:29:50.622Z,2.80
2023-04-05T23:32:18.012Z,2.40
2023-04-05T23:34:45.708Z,2.47
2023-04-05T23:37:13.186Z,2.50
2023-04-05T23:39:40.735Z,2.60
2023-04-05T23:42:09.096Z,2.47
2023-04-05T23:44:37.617Z,2.50
2023-04-05T23:47:05.520Z,2.35
2023-04-05T23:49:33.041Z,2.60
2023-04-05T23:52:00.477Z,2.60
2023-04-05T23:54:27.974Z,2.33
2023-04-05T23:56:56.129Z,2.30
2023-04-05T23:59:23.756Z,2.47
